Time;durP1;ratioP1;P1;durP2;ratioP2;P2;SDS_P1;SDS_P2;PMS_P1;PMS_P2;Temp;Humidity;BMP_temperature;BMP_pressure;BME280_temperature;BME280_humidity;BME280_pressure;Samples;Min_cycle;Max_cycle;Signal;HPM_P1;HPM_P2
2023/10/23 00:00:33;;;;;;;6.87;3.43;;;7.00;99.90;;;;;;5068376;28;20302;-61
2023/10/23 00:02:58;;;;;;;4.47;3.07;;;7.00;99.90;;;;;;5066413;28;20178;-62
2023/10/23 00:05:24;;;;;;;8.20;3.60;;;7.00;99.90;;;;;;5069716;28;20174;-62
2023/10/23 00:07:50;;;;;;;4.37;3.57;;;7.00;99.90;;;;;;5064348;28;20230;-61
2023/10/23 00:10:15;;;;;;;5.30;3.03;;;6.90;99.90;;;;;;5067084;28;20206;-61
2023/10/23 00:12:41;;;;;;;6.50;3.40;;;6.90;99.90;;;;;;5069678;28;20178;-61
2023/10/23 00:15:07;;;;;;;7.40;3.60;;;6.90;99.90;;;;;;5066339;28;20167;-61
2023/10/23 00:17:33;;;;;;;4.13;3.03;;;6.90;99.90;;;;;;5064263;28;20206;-61
2023/10/23 00:20:00;;;;;;;5.70;2.93;;;6.90;99.90;;;;;;5064037;28;20813;-61
2023/10/23 00:22:26;;;;;;;3.63;3.20;;;6.90;99.90;;;;;;5067560;28;20174;-61
2023/10/23 00:24:51;;;;;;;4.30;3.00;;;6.90;99.90;;;;;;5068069;28;20424;-62
2023/10/23 00:27:17;;;;;;;4.47;3.40;;;6.90;99.90;;;;;;5065654;28;20323;-61
2023/10/23 00:29:43;;;;;;;5.63;3.13;;;6.90;99.90;;;;;;5062808;28;20229;-60
2023/10/23 00:32:08;;;;;;;4.70;3.10;;;6.90;99.90;;;;;;5059748;28;20177;-61
2023/10/23 00:34:34;;;;;;;4.30;2.97;;;6.90;99.90;;;;;;5067231;28;20170;-61
2023/10/23 00:36:59;;;;;;;5.40;2.90;;;6.90;99.90;;;;;;5067241;28;20258;-61
2023/10/23 00:39:25;;;;;;;4.10;3.27;;;6.90;99.90;;;;;;5068611;28;20289;-60
2023/10/23 00:41:50;;;;;;;6.00;3.60;;;6.90;99.90;;;;;;5061146;28;20194;-61
2023/10/23 00:44:16;;;;;;;4.43;3.43;;;6.90;99.90;;;;;;5066687;28;20182;-61
2023/10/23 00:46:43;;;;;;;5.60;3.30;;;6.90;99.90;;;;;;5063185;28;20285;-62
2023/10/23 00:49:09;;;;;;;5.70;3.00;;;6.90;99.90;;;;;;5068104;28;20189;-61
2023/10/23 00:51:35;;;;;;;4.60;3.10;;;6.80;99.90;;;;;;5067084;28;20531;-61
2023/10/23 00:54:02;;;;;;;3.97;3.00;;;6.80;99.90;;;;;;5062413;28;20416;-60
2023/10/23 00:56:28;;;;;;;2.77;2.53;;;6.80;99.90;;;;;;5065236;28;20923;-61
2023/10/23 00:58:54;;;;;;;5.43;2.97;;;6.80;99.90;;;;;;5065669;28;21101;-61
2023/10/23 01:01:20;;;;;;;3.90;2.90;;;6.80;99.90;;;;;;5065763;28;20171;-61
2023/10/23 01:03:46;;;;;;;4.60;2.97;;;6.70;99.90;;;;;;5066850;28;20174;-61
2023/10/23 01:06:14;;;;;;;3.60;2.87;;;6.70;99.90;;;;;;5066725;28;20417;-61
2023/10/23 01:08:41;;;;;;;5.53;2.97;;;6.70;99.90;;;;;;5069214;28;20236;-61
2023/10/23 01:11:07;;;;;;;3.40;2.97;;;6.70;99.90;;;;;;5066758;28;20502;-61
2023/10/23 01:13:33;;;;;;;5.93;3.27;;;6.70;99.90;;;;;;5068539;28;20995;-61
2023/10/23 01:15:58;;;;;;;8.73;3.30;;;6.70;99.90;;;;;;5069253;28;20166;-61
2023/10/23 01:18:24;;;;;;;3.40;2.93;;;6.70;99.90;;;;;;5064465;28;20171;-60
2023/10/23 01:20:50;;;;;;;3.60;3.13;;;6.70;99.90;;;;;;5064079;28;20244;-60
2023/10/23 01:23:15;;;;;;;3.10;2.80;;;6.70;99.90;;;;;;5062397;28;20209;-61
2023/10/23 01:25:41;;;;;;;4.53;2.80;;;6.70;99.90;;;;;;5067311;28;20605;-61
2023/10/23 01:28:07;;;;;;;4.20;3.00;;;6.70;99.90;;;;;;5068815;28;20297;-61
2023/10/23 01:30:33;;;;;;;5.27;3.30;;;6.70;99.90;;;;;;5066227;28;20199;-60
2023/10/23 01:32:59;;;;;;;3.70;2.70;;;6.70;99.90;;;;;;5065291;28;20253;-61
2023/10/23 01:35:25;;;;;;;3.80;3.00;;;6.70;99.90;;;;;;5066531;28;20558;-61
2023/10/23 01:37:51;;;;;;;4.87;3.10;;;6.70;99.90;;;;;;5068449;28;20424;-61
2023/10/23 01:40:17;;;;;;;5.20;3.03;;;6.60;99.90;;;;;;5062885;28;20209;-61
2023/10/23 01:42:44;;;;;;;7.07;3.00;;;6.60;99.90;;;;;;5066825;28;20420;-62
2023/10/23 01:45:10;;;;;;;3.83;3.03;;;6.60;99.90;;;;;;5065425;28;20416;-62
2023/10/23 01:47:35;;;;;;;5.23;2.73;;;6.60;99.90;;;;;;5070115;28;21083;-61
2023/10/23 01:50:01;;;;;;;10.20;3.27;;;6.60;99.90;;;;;;5063348;28;20567;-60
2023/10/23 01:52:27;;;;;;;3.83;3.43;;;6.60;99.90;;;;;;5072086;28;20619;-61
2023/10/23 01:54:53;;;;;;;9.90;7.83;;;6.60;99.90;;;;;;5067658;28;20197;-61
2023/10/23 01:57:19;;;;;;;7.83;6.40;;;6.60;99.90;;;;;;5065484;28;20532;-61
2023/10/23 01:59:45;;;;;;;15.50;3.57;;;6.60;99.90;;;;;;5066913;28;20202;-61
2023/10/23 02:02:10;;;;;;;6.97;2.80;;;6.60;99.90;;;;;;5068182;28;20511;-61
2023/10/23 02:04:38;;;;;;;5.37;3.20;;;6.60;99.90;;;;;;5069372;28;20523;-61
2023/10/23 02:07:04;;;;;;;4.87;2.80;;;6.60;99.90;;;;;;5063993;28;20202;-61
2023/10/23 02:09:29;;;;;;;12.93;2.93;;;6.60;99.90;;;;;;5066751;28;20432;-61
2023/10/23 02:11:55;;;;;;;6.83;3.40;;;6.50;99.90;;;;;;5064492;28;20167;-61
2023/10/23 02:14:20;;;;;;;5.80;3.50;;;6.50;99.90;;;;;;5066500;28;20257;-61
2023/10/23 02:16:46;;;;;;;5.03;2.90;;;6.50;99.90;;;;;;5065163;28;20692;-61
2023/10/23 02:19:12;;;;;;;7.83;2.90;;;6.40;99.90;;;;;;5061075;28;20230;-61
2023/10/23 02:21:37;;;;;;;5.90;3.27;;;6.40;99.90;;;;;;5063477;28;20555;-62
2023/10/23 02:24:04;;;;;;;6.70;2.87;;;6.40;99.90;;;;;;5062143;28;20183;-60
2023/10/23 02:26:29;;;;;;;6.27;2.67;;;6.30;99.90;;;;;;5060899;28;20266;-61
2023/10/23 02:28:55;;;;;;;3.80;3.00;;;6.20;99.90;;;;;;5058654;28;20547;-61
2023/10/23 02:31:22;;;;;;;4.43;2.63;;;6.20;99.90;;;;;;5049240;28;20641;-62
2023/10/23 02:33:48;;;;;;;4.10;2.80;;;6.20;99.90;;;;;;5062882;28;20220;-61
2023/10/23 02:36:15;;;;;;;4.20;2.97;;;6.20;99.90;;;;;;5062551;28;20468;-61
2023/10/23 02:38:41;;;;;;;4.37;3.03;;;6.10;99.90;;;;;;5062469;28;20440;-61
2023/10/23 02:41:07;;;;;;;3.47;2.53;;;6.10;99.90;;;;;;5064579;28;20436;-61
2023/10/23 02:43:32;;;;;;;3.77;2.80;;;6.10;99.90;;;;;;5065110;28;20471;-60
2023/10/23 02:46:02;;;;;;;3.20;2.90;;;6.10;99.90;;;;;;5067331;28;20166;-61
2023/10/23 02:48:28;;;;;;;3.20;2.90;;;6.10;99.90;;;;;;5067212;28;20197;-62
2023/10/23 02:50:57;;;;;;;3.90;2.97;;;6.10;99.90;;;;;;5062763;28;21117;-61
2023/10/23 02:53:23;;;;;;;6.60;3.60;;;6.10;99.90;;;;;;5066666;28;20455;-61
2023/10/23 02:55:49;;;;;;;4.30;3.20;;;6.10;99.90;;;;;;5065559;28;20409;-60
2023/10/23 02:58:16;;;;;;;8.20;3.17;;;6.10;99.90;;;;;;5064624;28;20466;-62
2023/10/23 03:00:42;;;;;;;5.87;2.70;;;6.20;99.90;;;;;;5065435;28;20966;-61
2023/10/23 03:03:09;;;;;;;2.70;2.43;;;6.20;99.90;;;;;;5067177;28;20448;-62
2023/10/23 03:05:35;;;;;;;6.00;3.90;;;6.10;99.90;;;;;;5066169;28;20430;-61
2023/10/23 03:08:02;;;;;;;4.80;3.00;;;6.20;99.90;;;;;;5065028;28;20452;-60
2023/10/23 03:10:28;;;;;;;5.30;3.03;;;6.20;99.90;;;;;;5063125;28;20448;-61
2023/10/23 03:12:54;;;;;;;4.80;2.80;;;6.20;99.90;;;;;;5063785;28;20998;-59
2023/10/23 03:15:19;;;;;;;4.53;3.00;;;6.20;99.90;;;;;;5061656;28;20547;-61
2023/10/23 03:17:45;;;;;;;4.77;3.40;;;6.20;99.90;;;;;;5065377;28;20174;-60
2023/10/23 03:20:11;;;;;;;5.23;3.07;;;6.20;99.90;;;;;;5065642;28;20630;-61
2023/10/23 03:22:38;;;;;;;7.00;3.43;;;6.20;99.90;;;;;;5065964;28;20669;-61
2023/10/23 03:25:04;;;;;;;5.57;2.83;;;6.20;99.90;;;;;;5064603;28;20251;-61
2023/10/23 03:27:31;;;;;;;3.93;3.07;;;6.20;99.90;;;;;;5066269;28;20559;-62
2023/10/23 03:29:56;;;;;;;5.63;3.03;;;6.20;99.90;;;;;;5065538;28;20519;-61
2023/10/23 03:32:22;;;;;;;3.93;2.77;;;6.20;99.90;;;;;;5067355;28;20515;-62
2023/10/23 03:34:48;;;;;;;5.03;3.03;;;6.20;99.90;;;;;;5062090;28;20179;-59
2023/10/23 03:37:14;;;;;;;6.97;3.43;;;6.20;99.90;;;;;;5064569;28;20803;-61
2023/10/23 03:39:40;;;;;;;3.57;2.73;;;6.20;99.90;;;;;;5063186;28;20213;-61
2023/10/23 03:42:06;;;;;;;3.90;3.17;;;6.20;99.90;;;;;;5062854;28;20843;-61
2023/10/23 03:44:31;;;;;;;4.57;2.90;;;6.20;99.90;;;;;;5066518;28;20174;-63
2023/10/23 03:46:57;;;;;;;5.50;3.00;;;6.20;99.90;;;;;;5066834;28;20459;-61
2023/10/23 03:49:22;;;;;;;4.13;2.90;;;6.20;99.90;;;;;;5067586;28;20281;-61
2023/10/23 03:51:48;;;;;;;4.37;3.10;;;6.20;99.90;;;;;;5058781;28;20178;-61
2023/10/23 03:54:14;;;;;;;6.23;3.30;;;6.20;99.90;;;;;;5059521;28;20256;-61
2023/10/23 03:56:40;;;;;;;5.57;3.00;;;6.20;99.90;;;;;;5064976;28;20627;-61
2023/10/23 03:59:05;;;;;;;5.73;3.17;;;6.20;99.90;;;;;;5063393;28;20434;-61
2023/10/23 04:01:31;;;;;;;5.03;2.90;;;6.10;99.90;;;;;;5065060;28;20871;-60
2023/10/23 04:03:56;;;;;;;10.83;3.23;;;6.20;99.90;;;;;;5068897;28;20257;-61
2023/10/23 04:06:22;;;;;;;5.67;3.20;;;6.20;99.90;;;;;;5064555;28;20731;-56
2023/10/23 04:08:52;;;;;;;6.67;3.23;;;6.20;99.90;;;;;;5063367;28;20278;-61
2023/10/23 04:11:18;;;;;;;4.63;3.10;;;6.20;99.90;;;;;;5066083;28;20344;-61
2023/10/23 04:13:44;;;;;;;4.20;2.83;;;6.20;99.90;;;;;;5073256;28;20420;-61
2023/10/23 04:16:09;;;;;;;5.33;2.63;;;6.20;99.90;;;;;;5063582;28;20421;-63
2023/10/23 04:18:35;;;;;;;4.70;3.53;;;6.20;99.90;;;;;;5058662;28;20183;-63
2023/10/23 04:21:04;;;;;;;5.43;3.63;;;6.30;99.90;;;;;;5060505;28;20175;-62
2023/10/23 04:23:31;;;;;;;4.43;3.50;;;6.30;99.90;;;;;;5062168;28;20201;-59
2023/10/23 04:25:56;;;;;;;6.93;4.43;;;6.20;99.90;;;;;;5066327;28;20508;-60
2023/10/23 04:28:22;;;;;;;7.27;3.60;;;6.20;99.90;;;;;;5060312;28;20551;-63
2023/10/23 04:30:48;;;;;;;6.23;3.60;;;6.20;99.90;;;;;;5059695;28;20820;-62
2023/10/23 04:33:21;;;;;;;5.37;3.67;;;6.20;99.90;;;;;;5064929;28;20492;-61
2023/10/23 04:35:50;;;;;;;4.63;3.90;;;6.20;99.90;;;;;;5068373;28;21040;-60
2023/10/23 04:38:16;;;;;;;5.70;4.33;;;6.20;99.90;;;;;;5060020;28;21456;-62
2023/10/23 04:40:45;;;;;;;6.10;4.33;;;6.20;99.90;;;;;;5060924;28;20462;-60
2023/10/23 04:43:14;;;;;;;7.20;3.53;;;6.20;99.90;;;;;;5061123;28;22049;-62
2023/10/23 04:45:40;;;;;;;8.20;4.10;;;6.10;99.90;;;;;;5061458;28;20431;-63
2023/10/23 04:48:06;;;;;;;4.57;3.80;;;6.10;99.90;;;;;;5064211;28;20468;-63
2023/10/23 04:50:33;;;;;;;3.17;2.70;;;6.20;99.90;;;;;;5065071;28;20502;-62
2023/10/23 04:53:02;;;;;;;4.40;3.33;;;6.20;99.90;;;;;;5067327;28;20417;-63
2023/10/23 04:55:38;;;;;;;5.53;3.67;;;6.20;99.90;;;;;;5051996;28;20432;-63
2023/10/23 04:58:05;;;;;;;5.03;3.43;;;6.20;99.90;;;;;;5064716;28;20428;-64
2023/10/23 05:00:34;;;;;;;4.03;3.50;;;6.20;99.90;;;;;;5064216;28;20452;-63
2023/10/23 05:03:00;;;;;;;12.70;3.30;;;6.20;99.90;;;;;;5065816;28;20409;-62
2023/10/23 05:05:25;;;;;;;5.90;3.93;;;6.20;99.90;;;;;;5062501;28;21009;-62
2023/10/23 05:07:51;;;;;;;12.63;4.10;;;6.20;99.90;;;;;;5059177;28;20221;-63
2023/10/23 05:10:17;;;;;;;4.67;4.10;;;6.10;99.90;;;;;;5065075;28;20762;-62
2023/10/23 05:12:42;;;;;;;6.53;4.17;;;6.20;99.90;;;;;;5063505;28;20182;-62
2023/10/23 05:15:08;;;;;;;10.80;4.37;;;6.20;99.90;;;;;;5058836;28;20201;-63
2023/10/23 05:17:34;;;;;;;7.13;3.60;;;6.20;99.90;;;;;;5063207;28;20265;-62
2023/10/23 05:20:01;;;;;;;5.43;3.80;;;6.20;99.90;;;;;;5059715;28;20198;-62
2023/10/23 05:22:26;;;;;;;7.67;3.90;;;6.20;99.90;;;;;;5067409;28;20516;-63
2023/10/23 05:24:52;;;;;;;9.47;4.07;;;6.20;99.90;;;;;;5061712;28;21030;-62
2023/10/23 05:27:18;;;;;;;8.40;4.30;;;6.20;99.90;;;;;;5065141;28;20920;-62
2023/10/23 05:29:43;;;;;;;6.57;3.80;;;6.20;99.90;;;;;;5064363;28;20339;-63
2023/10/23 05:32:09;;;;;;;6.80;3.87;;;6.20;99.90;;;;;;5062456;28;20170;-63
2023/10/23 05:34:35;;;;;;;8.23;3.43;;;6.20;99.90;;;;;;5066553;28;20174;-63
2023/10/23 05:37:00;;;;;;;11.60;4.00;;;6.20;99.90;;;;;;5067586;28;20233;-62
2023/10/23 05:39:27;;;;;;;5.03;3.73;;;6.20;99.90;;;;;;5064105;28;20210;-63
2023/10/23 05:41:52;;;;;;;9.47;4.20;;;6.30;99.90;;;;;;5061780;28;22031;-62
2023/10/23 05:44:18;;;;;;;11.97;3.93;;;6.20;99.90;;;;;;5066030;28;20515;-62
2023/10/23 05:46:44;;;;;;;7.27;4.10;;;6.20;99.90;;;;;;5067442;28;20208;-63
2023/10/23 05:49:09;;;;;;;4.20;3.50;;;6.20;99.90;;;;;;5062823;28;20187;-62
2023/10/23 05:51:35;;;;;;;9.30;4.20;;;6.20;99.90;;;;;;5060239;28;20179;-63
2023/10/23 05:54:00;;;;;;;5.00;4.03;;;6.20;99.90;;;;;;5061525;28;20174;-62
2023/10/23 05:56:26;;;;;;;11.50;3.90;;;6.20;99.90;;;;;;5063925;28;20202;-63
2023/10/23 05:58:51;;;;;;;6.47;4.40;;;6.10;99.90;;;;;;5065236;28;20707;-63
2023/10/23 06:01:17;;;;;;;5.50;4.03;;;6.10;99.90;;;;;;5065239;28;20283;-62
2023/10/23 06:03:43;;;;;;;6.20;4.07;;;6.10;99.90;;;;;;5063907;28;20214;-63
2023/10/23 06:06:09;;;;;;;10.10;4.90;;;6.20;99.90;;;;;;5060977;28;20223;-61
2023/10/23 06:08:35;;;;;;;12.40;4.27;;;6.20;99.90;;;;;;5064552;28;20383;-62
2023/10/23 06:11:01;;;;;;;8.43;4.37;;;6.20;99.90;;;;;;5064510;28;20467;-60
2023/10/23 06:13:27;;;;;;;5.70;3.80;;;6.20;99.90;;;;;;5063147;28;20702;-62
2023/10/23 06:15:53;;;;;;;8.60;4.00;;;6.20;99.90;;;;;;5065837;28;20517;-63
2023/10/23 06:18:19;;;;;;;8.50;4.60;;;6.20;99.90;;;;;;5060258;28;20677;-59
2023/10/23 06:20:45;;;;;;;8.40;4.27;;;6.30;99.90;;;;;;5065090;28;20205;-61
2023/10/23 06:23:11;;;;;;;12.23;4.93;;;6.30;99.90;;;;;;5060677;28;20422;-60
2023/10/23 06:25:36;;;;;;;12.00;4.37;;;6.30;99.90;;;;;;5063485;28;20209;-62
2023/10/23 06:28:03;;;;;;;9.70;4.37;;;6.30;99.90;;;;;;5057421;28;20217;-60
2023/10/23 06:30:29;;;;;;;10.83;4.40;;;6.30;99.90;;;;;;5060186;28;20193;-60
2023/10/23 06:32:54;;;;;;;6.20;4.20;;;6.30;99.90;;;;;;5058429;28;20943;-59
2023/10/23 06:35:20;;;;;;;8.30;4.60;;;6.40;99.90;;;;;;5061849;28;20421;-60
2023/10/23 06:37:48;;;;;;;4.83;3.60;;;6.40;99.90;;;;;;5066875;28;20174;-62
2023/10/23 06:40:13;;;;;;;5.20;3.33;;;6.40;99.90;;;;;;5060866;28;20206;-60
2023/10/23 06:42:39;;;;;;;8.20;4.50;;;6.40;99.90;;;;;;5061170;28;20428;-60
2023/10/23 06:45:06;;;;;;;8.00;4.37;;;6.50;99.90;;;;;;5062879;28;20718;-62
2023/10/23 06:47:32;;;;;;;10.70;3.90;;;6.50;99.90;;;;;;5064227;28;20221;-60
2023/10/23 06:49:59;;;;;;;9.80;3.83;;;6.60;99.90;;;;;;5058507;28;20472;-60
2023/10/23 06:52:25;;;;;;;7.40;4.80;;;6.60;99.90;;;;;;5059531;28;20702;-60
2023/10/23 06:54:50;;;;;;;6.20;4.53;;;6.70;99.90;;;;;;5061483;28;20443;-60
2023/10/23 06:57:16;;;;;;;9.70;5.20;;;6.70;99.90;;;;;;5061286;28;20738;-60
2023/10/23 06:59:42;;;;;;;6.83;4.37;;;6.70;99.90;;;;;;5065231;28;20226;-60
2023/10/23 07:02:09;;;;;;;9.07;5.07;;;6.80;99.90;;;;;;5060683;28;20217;-61
2023/10/23 07:04:34;;;;;;;8.43;4.80;;;6.80;99.90;;;;;;5063720;28;20265;-60
2023/10/23 07:07:00;;;;;;;7.30;4.20;;;6.80;99.90;;;;;;5059168;28;20543;-60
2023/10/23 07:09:26;;;;;;;5.97;3.83;;;6.90;99.90;;;;;;5056666;28;20525;-63
2023/10/23 07:11:52;;;;;;;7.07;3.90;;;6.90;99.90;;;;;;5067279;28;20250;-60
2023/10/23 07:14:18;;;;;;;6.50;3.80;;;7.00;99.90;;;;;;5070066;28;20182;-61
2023/10/23 07:16:45;;;;;;;5.67;3.33;;;7.00;99.90;;;;;;5066096;28;20421;-60
2023/10/23 07:19:11;;;;;;;9.83;3.47;;;7.00;99.90;;;;;;5064516;28;20475;-60
2023/10/23 07:21:37;;;;;;;7.07;3.90;;;7.10;99.90;;;;;;5063793;28;20421;-62
2023/10/23 07:24:03;;;;;;;5.27;3.23;;;7.20;99.90;;;;;;5066214;28;20185;-59
2023/10/23 07:26:29;;;;;;;9.30;3.80;;;7.20;99.90;;;;;;5064455;28;20433;-60
2023/10/23 07:28:55;;;;;;;5.70;3.60;;;7.30;99.90;;;;;;5066542;28;20517;-60
2023/10/23 07:31:21;;;;;;;3.97;3.37;;;7.30;99.90;;;;;;5062452;28;20531;-62
2023/10/23 07:33:47;;;;;;;6.80;4.37;;;7.40;99.90;;;;;;5059975;28;20649;-61
2023/10/23 07:36:13;;;;;;;7.83;3.80;;;7.50;99.90;;;;;;5063672;28;20434;-60
2023/10/23 07:38:41;;;;;;;7.07;4.60;;;7.50;99.90;;;;;;5068270;28;20198;-63
2023/10/23 07:41:07;;;;;;;6.80;4.30;;;7.60;99.90;;;;;;5064813;28;20433;-62
2023/10/23 07:43:33;;;;;;;11.60;4.00;;;7.60;99.90;;;;;;5069266;28;20431;-61
2023/10/23 07:46:08;;;;;;;11.10;4.30;;;7.70;99.90;;;;;;5068608;28;20507;-61
2023/10/23 07:48:33;;;;;;;7.90;4.40;;;7.70;99.90;;;;;;5069443;28;20229;-60
2023/10/23 07:51:00;;;;;;;7.30;4.53;;;7.70;99.90;;;;;;5059304;28;20471;-61
2023/10/23 07:53:26;;;;;;;4.40;3.80;;;7.80;99.90;;;;;;5065182;28;20184;-61
2023/10/23 07:55:52;;;;;;;4.70;3.10;;;7.80;99.90;;;;;;5063466;28;20513;-60
2023/10/23 07:58:17;;;;;;;5.77;4.00;;;7.90;99.90;;;;;;5058697;28;20533;-60
2023/10/23 08:00:43;;;;;;;5.40;3.80;;;7.90;99.90;;;;;;5068593;28;20228;-61
2023/10/23 08:03:10;;;;;;;4.63;3.67;;;7.90;99.90;;;;;;5063000;28;20183;-58
2023/10/23 08:05:36;;;;;;;9.70;3.83;;;8.00;99.90;;;;;;5066151;28;20179;-58
2023/10/23 08:08:02;;;;;;;10.33;4.03;;;8.00;99.90;;;;;;5067774;28;20460;-60
2023/10/23 08:10:27;;;;;;;6.33;4.77;;;8.10;99.90;;;;;;5065791;28;20446;-59
2023/10/23 08:12:53;;;;;;;12.10;4.63;;;8.10;99.90;;;;;;5066979;28;20194;-59
2023/10/23 08:15:18;;;;;;;9.70;4.53;;;8.10;99.90;;;;;;5060658;28;20829;-58
2023/10/23 08:17:44;;;;;;;4.80;4.23;;;8.10;99.90;;;;;;5069408;28;20258;-59
2023/10/23 08:20:10;;;;;;;6.40;4.10;;;8.10;99.90;;;;;;5063536;28;20220;-60
2023/10/23 08:22:36;;;;;;;6.13;3.97;;;8.20;99.90;;;;;;5060181;28;20302;-59
2023/10/23 08:25:02;;;;;;;7.90;4.57;;;8.20;99.90;;;;;;5060894;28;20433;-59
2023/10/23 08:27:28;;;;;;;6.67;4.20;;;8.30;99.90;;;;;;5064498;28;20461;-59
2023/10/23 08:29:53;;;;;;;8.47;3.93;;;8.40;99.90;;;;;;5065469;28;20433;-60
2023/10/23 08:32:19;;;;;;;6.73;3.93;;;8.50;99.90;;;;;;5062393;28;20179;-60
2023/10/23 08:34:45;;;;;;;6.17;4.27;;;8.60;99.90;;;;;;5062907;28;20170;-59
2023/10/23 08:37:10;;;;;;;6.30;4.83;;;8.70;99.90;;;;;;5063701;28;20556;-61
2023/10/23 08:39:37;;;;;;;7.20;4.50;;;8.80;99.90;;;;;;5064337;28;20603;-59
2023/10/23 08:42:03;;;;;;;8.13;4.67;;;9.00;99.90;;;;;;5066028;28;20178;-61
2023/10/23 08:44:29;;;;;;;9.40;4.07;;;9.00;99.90;;;;;;5065787;28;20439;-60
2023/10/23 08:46:55;;;;;;;6.03;3.63;;;9.10;99.90;;;;;;5064856;28;20457;-61
2023/10/23 08:49:21;;;;;;;6.37;4.13;;;9.20;99.90;;;;;;5066737;28;20195;-63
2023/10/23 08:51:51;;;;;;;7.97;4.50;;;9.30;99.90;;;;;;5061560;28;20244;-59
2023/10/23 08:54:18;;;;;;;5.60;3.97;;;9.30;99.90;;;;;;5064129;28;20417;-59
2023/10/23 08:56:45;;;;;;;6.80;4.60;;;9.40;99.90;;;;;;5063279;28;20958;-59
2023/10/23 08:59:13;;;;;;;4.90;3.90;;;9.40;99.90;;;;;;5064502;28;20452;-60
2023/10/23 09:01:40;;;;;;;6.20;4.40;;;9.50;99.90;;;;;;5067049;28;20432;-60
2023/10/23 09:04:06;;;;;;;6.10;4.00;;;9.50;99.90;;;;;;5064846;28;20828;-60
2023/10/23 09:06:33;;;;;;;6.87;4.27;;;9.60;99.90;;;;;;5069446;28;20466;-59
2023/10/23 09:08:59;;;;;;;5.70;3.83;;;9.60;99.90;;;;;;5066444;28;20444;-60
2023/10/23 09:11:44;;;;;;;7.10;4.07;;;9.70;99.90;;;;;;5068548;28;20499;-61
2023/10/23 09:14:12;;;;;;;10.30;3.60;;;9.90;99.90;;;;;;5066275;28;21022;-59
2023/10/23 09:16:39;;;;;;;5.87;3.73;;;10.00;99.90;;;;;;5067859;28;20471;-59
2023/10/23 09:19:04;;;;;;;10.30;4.90;;;10.10;99.90;;;;;;5064651;28;20444;-59
2023/10/23 09:21:33;;;;;;;13.70;4.53;;;10.30;99.90;;;;;;5064576;28;22529;-58
2023/10/23 09:24:00;;;;;;;6.93;3.90;;;10.40;99.90;;;;;;5063891;28;20289;-59
2023/10/23 09:26:26;;;;;;;5.97;3.50;;;10.50;99.90;;;;;;5061847;28;20428;-60
2023/10/23 09:28:52;;;;;;;6.40;3.00;;;10.60;99.90;;;;;;5062750;28;20514;-59
2023/10/23 09:31:20;;;;;;;5.43;3.30;;;10.70;99.90;;;;;;5059929;28;22941;-60
2023/10/23 09:33:46;;;;;;;5.03;3.70;;;10.70;99.90;;;;;;5056689;28;20478;-61
2023/10/23 09:36:13;;;;;;;7.03;3.83;;;10.80;99.90;;;;;;5062329;28;20421;-60
2023/10/23 09:38:41;;;;;;;14.63;4.40;;;10.80;99.90;;;;;;5063297;28;20890;-61
2023/10/23 09:41:10;;;;;;;10.20;4.13;;;10.90;99.90;;;;;;5061656;28;21007;-62
2023/10/23 09:43:45;;;;;;;4.93;3.67;;;10.90;99.90;;;;;;5064241;28;20432;-58
2023/10/23 09:46:14;;;;;;;12.30;3.50;;;11.00;99.90;;;;;;5064271;28;20942;-60
2023/10/23 09:48:44;;;;;;;6.83;3.40;;;11.00;99.90;;;;;;5066888;28;21127;-60
2023/10/23 09:51:15;;;;;;;6.77;3.67;;;10.90;99.90;;;;;;5061406;28;20426;-60
2023/10/23 09:53:48;;;;;;;5.30;3.70;;;10.90;99.90;;;;;;5056109;28;20436;-59
2023/10/23 09:56:19;;;;;;;4.60;3.40;;;10.90;99.90;;;;;;5059724;28;20923;-60
2023/10/23 09:58:49;;;;;;;4.30;3.00;;;11.00;99.90;;;;;;5060518;28;20432;-61
2023/10/23 10:01:17;;;;;;;5.13;2.93;;;11.00;99.90;;;;;;5060360;28;20429;-61
2023/10/23 10:03:44;;;;;;;4.67;3.13;;;11.00;99.90;;;;;;5065039;28;20437;-60
2023/10/23 10:06:15;;;;;;;4.30;2.80;;;11.00;99.90;;;;;;5059786;28;20440;-62
2023/10/23 10:08:48;;;;;;;4.20;2.60;;;11.10;99.90;;;;;;5066127;28;20472;-60
2023/10/23 10:11:15;;;;;;;3.93;2.40;;;11.10;99.90;;;;;;5064447;28;20451;-60
2023/10/23 10:13:42;;;;;;;2.67;2.47;;;11.10;99.90;;;;;;5064059;28;20429;-61
2023/10/23 10:16:08;;;;;;;4.50;2.70;;;11.10;99.90;;;;;;5055071;28;20416;-61
2023/10/23 10:18:35;;;;;;;9.17;2.67;;;11.10;99.90;;;;;;5060767;28;20444;-62
2023/10/23 10:21:05;;;;;;;4.43;2.53;;;11.10;99.90;;;;;;5063603;28;20512;-59
2023/10/23 10:23:31;;;;;;;3.57;3.27;;;11.20;99.90;;;;;;5064386;28;20436;-59
2023/10/23 10:25:58;;;;;;;4.43;2.83;;;11.20;99.90;;;;;;5062194;28;20436;-59
2023/10/23 10:28:27;;;;;;;5.60;2.43;;;11.20;99.90;;;;;;5058042;28;20472;-59
2023/10/23 10:30:54;;;;;;;4.60;2.77;;;11.30;99.90;;;;;;5057803;28;20484;-59
2023/10/23 10:33:29;;;;;;;3.70;2.70;;;11.30;99.90;;;;;;5059708;28;20429;-59
2023/10/23 10:36:05;;;;;;;7.30;2.70;;;11.30;99.90;;;;;;5065277;28;20499;-59
2023/10/23 10:38:32;;;;;;;5.20;2.73;;;11.30;99.90;;;;;;5057051;28;20972;-62
2023/10/23 10:41:14;;;;;;;6.13;2.73;;;11.30;99.90;;;;;;5063033;28;20559;-61
2023/10/23 10:43:41;;;;;;;4.07;2.90;;;11.30;99.90;;;;;;5061118;28;20433;-61
2023/10/23 10:46:26;;;;;;;4.27;2.90;;;11.40;99.90;;;;;;5057755;28;20444;-60
2023/10/23 10:48:53;;;;;;;7.93;2.80;;;11.40;99.90;;;;;;5059641;28;20460;-60
2023/10/23 10:51:26;;;;;;;3.87;2.97;;;11.50;99.90;;;;;;5060176;28;20424;-63
2023/10/23 10:54:00;;;;;;;6.33;3.47;;;11.50;99.90;;;;;;5060672;28;20508;-61
2023/10/23 10:56:26;;;;;;;6.07;4.50;;;11.60;99.90;;;;;;5060197;28;20440;-61
2023/10/23 10:58:51;;;;;;;8.50;3.57;;;11.60;99.90;;;;;;5062043;28;21120;-59
2023/10/23 11:01:21;;;;;;;4.80;3.90;;;11.70;99.90;;;;;;5062176;28;20431;-62
2023/10/23 11:03:47;;;;;;;5.93;3.13;;;11.70;99.90;;;;;;5065142;28;20725;-61
2023/10/23 11:06:12;;;;;;;8.20;3.30;;;11.80;99.90;;;;;;5063703;28;20425;-60
2023/10/23 11:08:40;;;;;;;5.03;2.97;;;11.90;99.90;;;;;;5064573;28;20225;-61
2023/10/23 11:11:06;;;;;;;4.10;3.60;;;12.00;99.90;;;;;;5061600;28;20273;-62
2023/10/23 11:13:32;;;;;;;4.17;2.90;;;12.00;99.90;;;;;;5062002;28;20429;-60
2023/10/23 11:15:59;;;;;;;5.27;2.60;;;12.00;99.90;;;;;;5063609;28;20483;-60
2023/10/23 11:18:25;;;;;;;4.93;2.37;;;12.00;99.90;;;;;;5061807;28;20428;-61
2023/10/23 11:20:55;;;;;;;6.67;2.97;;;12.00;99.90;;;;;;5062589;28;20819;-61
2023/10/23 11:23:22;;;;;;;3.50;2.47;;;12.00;99.90;;;;;;5068786;28;20536;-60
2023/10/23 11:25:48;;;;;;;6.10;4.13;;;11.90;99.90;;;;;;5065551;28;20435;-60
2023/10/23 11:28:19;;;;;;;4.73;3.53;;;11.90;99.90;;;;;;5061398;28;20456;-61
2023/10/23 11:30:46;;;;;;;5.80;3.50;;;11.80;99.90;;;;;;5064990;28;20470;-60
2023/10/23 11:33:12;;;;;;;4.67;3.57;;;11.80;99.90;;;;;;5063492;28;20435;-60
2023/10/23 11:35:40;;;;;;;5.83;4.20;;;11.80;99.90;;;;;;5061377;28;20552;-61
2023/10/23 11:38:10;;;;;;;8.77;4.10;;;11.80;99.90;;;;;;5063208;28;20487;-61
2023/10/23 11:40:36;;;;;;;4.07;3.43;;;11.80;99.90;;;;;;5060513;28;20465;-61
2023/10/23 11:43:02;;;;;;;5.30;3.57;;;11.80;99.90;;;;;;5068939;28;20421;-61
2023/10/23 11:45:29;;;;;;;5.57;3.50;;;11.80;99.90;;;;;;5065457;28;20943;-61
2023/10/23 11:47:55;;;;;;;9.23;3.70;;;11.80;99.90;;;;;;5063430;28;20465;-62
2023/10/23 11:50:21;;;;;;;7.60;4.30;;;11.80;99.90;;;;;;5062251;28;20455;-62
2023/10/23 11:52:48;;;;;;;6.80;3.30;;;11.80;99.90;;;;;;5055724;28;20444;-63
2023/10/23 11:55:15;;;;;;;5.77;3.07;;;11.80;99.90;;;;;;5062438;28;20425;-62
2023/10/23 11:57:44;;;;;;;2.87;2.60;;;11.80;99.90;;;;;;5058071;28;20429;-62
2023/10/23 12:00:12;;;;;;;3.30;2.67;;;11.80;99.90;;;;;;5064516;28;20535;-61
2023/10/23 12:02:42;;;;;;;6.50;2.83;;;11.80;99.90;;;;;;5055950;28;20444;-57
2023/10/23 12:05:13;;;;;;;4.20;2.77;;;11.90;99.90;;;;;;5066053;28;20426;-62
2023/10/23 12:07:44;;;;;;;4.83;3.47;;;11.90;99.90;;;;;;5066747;28;20471;-61
2023/10/23 12:10:10;;;;;;;6.70;3.10;;;12.10;99.90;;;;;;5068033;28;20555;-61
2023/10/23 12:12:39;;;;;;;4.23;2.40;;;12.60;99.90;;;;;;5060401;28;20520;-61
2023/10/23 12:15:06;;;;;;;4.73;2.53;;;13.20;99.90;;;;;;5058669;28;21013;-61
2023/10/23 12:17:32;;;;;;;7.73;2.70;;;13.60;99.90;;;;;;5067353;28;20429;-60
2023/10/23 12:19:57;;;;;;;2.67;2.47;;;13.80;99.90;;;;;;5062724;28;20456;-61
2023/10/23 12:22:23;;;;;;;7.50;2.10;;;13.80;99.90;;;;;;5051327;28;20178;-65
2023/10/23 12:24:49;;;;;;;2.40;2.20;;;13.70;99.90;;;;;;5064431;28;20198;-61
2023/10/23 12:27:15;;;;;;;2.60;2.40;;;13.60;99.90;;;;;;5063671;28;20194;-61
2023/10/23 12:29:40;;;;;;;3.27;2.70;;;13.50;99.90;;;;;;5068019;28;20247;-61
2023/10/23 12:32:07;;;;;;;3.60;2.60;;;13.50;99.90;;;;;;5063057;28;20232;-63
2023/10/23 12:34:34;;;;;;;4.30;2.03;;;13.80;99.90;;;;;;5062413;28;20682;-62
2023/10/23 12:37:00;;;;;;;5.70;2.17;;;14.60;99.90;;;;;;5063942;28;21082;-62
2023/10/23 12:39:26;;;;;;;4.27;2.17;;;15.50;99.90;;;;;;5063712;28;20547;-61
2023/10/23 12:41:51;;;;;;;4.40;1.90;;;15.90;99.90;;;;;;5059476;28;20304;-62
2023/10/23 12:44:17;;;;;;;6.10;1.90;;;16.40;99.90;;;;;;5063538;28;20946;-61
2023/10/23 12:46:42;;;;;;;6.80;1.70;;;17.00;99.90;;;;;;5068282;28;20187;-60
2023/10/23 12:49:08;;;;;;;3.53;1.63;;;17.50;97.50;;;;;;5067256;28;20445;-59